sensor_id;sensor_type;location;lat;lon;timestamp;P1;durP1;ratioP1;P2;durP2;ratioP2
22429;SDS011;11382;48.086;11.632;2023-03-14T00:00:24;0.73;;;0.40;;
22429;SDS011;11382;48.086;11.632;2023-03-14T00:02:52;1.23;;;0.60;;
22429;SDS011;11382;48.086;11.632;2023-03-14T00:05:20;0.70;;;0.52;;
22429;SDS011;11382;48.086;11.632;2023-03-14T00:07:48;1.17;;;0.68;;
22429;SDS011;11382;48.086;11.632;2023-03-14T00:10:17;1.13;;;0.50;;
22429;SDS011;11382;48.086;11.632;2023-03-14T00:12:45;0.55;;;0.55;;
22429;SDS011;11382;48.086;11.632;2023-03-14T00:15:14;1.48;;;0.45;;
22429;SDS011;11382;48.086;11.632;2023-03-14T00:17:43;2.25;;;0.40;;
22429;SDS011;11382;48.086;11.632;2023-03-14T00:20:11;0.70;;;0.60;;
22429;SDS011;11382;48.086;11.632;2023-03-14T00:22:40;1.58;;;0.45;;
22429;SDS011;11382;48.086;11.632;2023-03-14T00:25:09;0.30;;;0.30;;
22429;SDS011;11382;48.086;11.632;2023-03-14T00:27:38;0.30;;;0.22;;
22429;SDS011;11382;48.086;11.632;2023-03-14T00:30:07;0.52;;;0.43;;
22429;SDS011;11382;48.086;11.632;2023-03-14T00:32:37;0.68;;;0.40;;
22429;SDS011;11382;48.086;11.632;2023-03-14T00:35:07;3.20;;;0.40;;
22429;SDS011;11382;48.086;11.632;2023-03-14T00:37:35;0.47;;;0.30;;
22429;SDS011;11382;48.086;11.632;2023-03-14T00:40:05;0.52;;;0.40;;
22429;SDS011;11382;48.086;11.632;2023-03-14T00:42:34;0.30;;;0.30;;
22429;SDS011;11382;48.086;11.632;2023-03-14T00:45:02;0.30;;;0.30;;
22429;SDS011;11382;48.086;11.632;2023-03-14T00:47:32;0.63;;;0.30;;
22429;SDS011;11382;48.086;11.632;2023-03-14T00:50:02;0.35;;;0.28;;
22429;SDS011;11382;48.086;11.632;2023-03-14T00:52:30;1.50;;;0.30;;
22429;SDS011;11382;48.086;11.632;2023-03-14T00:54:58;0.30;;;0.30;;
22429;SDS011;11382;48.086;11.632;2023-03-14T00:57:26;0.20;;;0.20;;
22429;SDS011;11382;48.086;11.632;2023-03-14T00:59:55;0.40;;;0.20;;
22429;SDS011;11382;48.086;11.632;2023-03-14T01:02:23;2.08;;;0.22;;
22429;SDS011;11382;48.086;11.632;2023-03-14T01:04:51;0.50;;;0.30;;
22429;SDS011;11382;48.086;11.632;2023-03-14T01:07:22;1.20;;;0.28;;
22429;SDS011;11382;48.086;11.632;2023-03-14T01:09:51;1.90;;;0.40;;
22429;SDS011;11382;48.086;11.632;2023-03-14T01:12:19;1.02;;;0.22;;
22429;SDS011;11382;48.086;11.632;2023-03-14T01:14:47;0.82;;;0.30;;
22429;SDS011;11382;48.086;11.632;2023-03-14T01:17:15;0.43;;;0.20;;
22429;SDS011;11382;48.086;11.632;2023-03-14T01:19:43;0.10;;;0.10;;
22429;SDS011;11382;48.086;11.632;2023-03-14T01:22:10;0.68;;;0.30;;
22429;SDS011;11382;48.086;11.632;2023-03-14T01:24:40;0.85;;;0.17;;
22429;SDS011;11382;48.086;11.632;2023-03-14T01:27:08;0.63;;;0.30;;
22429;SDS011;11382;48.086;11.632;2023-03-14T01:29:36;0.45;;;0.10;;
22429;SDS011;11382;48.086;11.632;2023-03-14T01:32:04;1.25;;;0.40;;
22429;SDS011;11382;48.086;11.632;2023-03-14T01:34:32;0.45;;;0.20;;
22429;SDS011;11382;48.086;11.632;2023-03-14T01:37:00;0.57;;;0.40;;
22429;SDS011;11382;48.086;11.632;2023-03-14T01:39:29;1.00;;;0.40;;
22429;SDS011;11382;48.086;11.632;2023-03-14T01:41:59;0.68;;;0.40;;
22429;SDS011;11382;48.086;11.632;2023-03-14T01:44:27;1.25;;;0.25;;
22429;SDS011;11382;48.086;11.632;2023-03-14T01:46:55;0.28;;;0.28;;
22429;SDS011;11382;48.086;11.632;2023-03-14T01:49:24;0.98;;;0.28;;
22429;SDS011;11382;48.086;11.632;2023-03-14T01:52:02;0.93;;;0.40;;
22429;SDS011;11382;48.086;11.632;2023-03-14T01:54:33;1.30;;;0.50;;
22429;SDS011;11382;48.086;11.632;2023-03-14T01:57:06;0.43;;;0.40;;
22429;SDS011;11382;48.086;11.632;2023-03-14T01:59:37;0.40;;;0.22;;
22429;SDS011;11382;48.086;11.632;2023-03-14T02:02:07;1.13;;;0.38;;
22429;SDS011;11382;48.086;11.632;2023-03-14T02:04:39;0.73;;;0.40;;
22429;SDS011;11382;48.086;11.632;2023-03-14T02:07:09;0.50;;;0.45;;
22429;SDS011;11382;48.086;11.632;2023-03-14T02:09:45;0.57;;;0.30;;
22429;SDS011;11382;48.086;11.632;2023-03-14T02:12:22;1.80;;;0.50;;
22429;SDS011;11382;48.086;11.632;2023-03-14T02:15:07;1.80;;;0.60;;
22429;SDS011;11382;48.086;11.632;2023-03-14T02:17:51;0.55;;;0.50;;
22429;SDS011;11382;48.086;11.632;2023-03-14T02:20:45;1.15;;;0.47;;
22429;SDS011;11382;48.086;11.632;2023-03-14T02:23:20;1.15;;;0.38;;
22429;SDS011;11382;48.086;11.632;2023-03-14T02:26:00;0.60;;;0.40;;
22429;SDS011;11382;48.086;11.632;2023-03-14T02:28:33;1.17;;;0.55;;
22429;SDS011;11382;48.086;11.632;2023-03-14T02:31:02;0.20;;;0.20;;
22429;SDS011;11382;48.086;11.632;2023-03-14T02:33:33;0.75;;;0.40;;
22429;SDS011;11382;48.086;11.632;2023-03-14T02:36:05;0.30;;;0.30;;
22429;SDS011;11382;48.086;11.632;2023-03-14T02:38:37;0.57;;;0.30;;
22429;SDS011;11382;48.086;11.632;2023-03-14T02:41:13;0.22;;;0.20;;
22429;SDS011;11382;48.086;11.632;2023-03-14T02:43:48;0.70;;;0.30;;
22429;SDS011;11382;48.086;11.632;2023-03-14T02:46:17;0.60;;;0.30;;
22429;SDS011;11382;48.086;11.632;2023-03-14T02:48:47;0.30;;;0.30;;
22429;SDS011;11382;48.086;11.632;2023-03-14T02:51:18;0.65;;;0.30;;
22429;SDS011;11382;48.086;11.632;2023-03-14T02:53:47;1.55;;;0.20;;
22429;SDS011;11382;48.086;11.632;2023-03-14T02:56:17;2.50;;;0.47;;
22429;SDS011;11382;48.086;11.632;2023-03-14T02:58:45;0.30;;;0.20;;
22429;SDS011;11382;48.086;11.632;2023-03-14T03:01:29;0.55;;;0.28;;
22429;SDS011;11382;48.086;11.632;2023-03-14T03:03:57;0.20;;;0.20;;
22429;SDS011;11382;48.086;11.632;2023-03-14T03:06:25;0.82;;;0.20;;
22429;SDS011;11382;48.086;11.632;2023-03-14T03:08:53;0.45;;;0.20;;
22429;SDS011;11382;48.086;11.632;2023-03-14T03:11:21;0.40;;;0.20;;
22429;SDS011;11382;48.086;11.632;2023-03-14T03:13:49;0.40;;;0.25;;
22429;SDS011;11382;48.086;11.632;2023-03-14T03:16:17;0.20;;;0.10;;
22429;SDS011;11382;48.086;11.632;2023-03-14T03:18:46;2.67;;;0.63;;
22429;SDS011;11382;48.086;11.632;2023-03-14T03:21:14;0.40;;;0.10;;
22429;SDS011;11382;48.086;11.632;2023-03-14T03:23:43;1.10;;;0.20;;
22429;SDS011;11382;48.086;11.632;2023-03-14T03:26:11;0.10;;;0.10;;
22429;SDS011;11382;48.086;11.632;2023-03-14T03:28:39;0.65;;;0.17;;
22429;SDS011;11382;48.086;11.632;2023-03-14T03:31:08;0.03;;;0.03;;
22429;SDS011;11382;48.086;11.632;2023-03-14T03:33:38;0.20;;;0.20;;
22429;SDS011;11382;48.086;11.632;2023-03-14T03:36:08;0.10;;;0.10;;
22429;SDS011;11382;48.086;11.632;2023-03-14T03:38:38;0.30;;;0.20;;
22429;SDS011;11382;48.086;11.632;2023-03-14T03:41:06;0.15;;;0.15;;
22429;SDS011;11382;48.086;11.632;2023-03-14T03:43:34;0.73;;;0.15;;
22429;SDS011;11382;48.086;11.632;2023-03-14T03:46:05;0.15;;;0.10;;
22429;SDS011;11382;48.086;11.632;2023-03-14T03:48:34;0.10;;;0.10;;
22429;SDS011;11382;48.086;11.632;2023-03-14T03:51:04;0.90;;;0.30;;
22429;SDS011;11382;48.086;11.632;2023-03-14T03:53:36;0.10;;;0.10;;
22429;SDS011;11382;48.086;11.632;2023-03-14T03:58:37;0.00;;;0.00;;
22429;SDS011;11382;48.086;11.632;2023-03-14T04:01:06;0.10;;;0.10;;
22429;SDS011;11382;48.086;11.632;2023-03-14T04:03:35;0.10;;;0.10;;
22429;SDS011;11382;48.086;11.632;2023-03-14T04:06:06;0.10;;;0.10;;
22429;SDS011;11382;48.086;11.632;2023-03-14T04:08:38;1.33;;;0.20;;
22429;SDS011;11382;48.086;11.632;2023-03-14T04:13:53;0.20;;;0.10;;
22429;SDS011;11382;48.086;11.632;2023-03-14T04:16:22;0.80;;;0.10;;
22429;SDS011;11382;48.086;11.632;2023-03-14T04:18:57;0.20;;;0.10;;
22429;SDS011;11382;48.086;11.632;2023-03-14T04:21:26;1.38;;;0.20;;
22429;SDS011;11382;48.086;11.632;2023-03-14T04:23:57;0.15;;;0.03;;
22429;SDS011;11382;48.086;11.632;2023-03-14T04:26:29;0.10;;;0.10;;
22429;SDS011;11382;48.086;11.632;2023-03-14T04:28:57;0.10;;;0.10;;
22429;SDS011;11382;48.086;11.632;2023-03-14T04:31:25;0.50;;;0.10;;
22429;SDS011;11382;48.086;11.632;2023-03-14T04:33:54;0.10;;;0.10;;
22429;SDS011;11382;48.086;11.632;2023-03-14T04:36:28;0.22;;;0.13;;
22429;SDS011;11382;48.086;11.632;2023-03-14T04:39:03;0.30;;;0.20;;
22429;SDS011;11382;48.086;11.632;2023-03-14T04:41:34;0.30;;;0.27;;
22429;SDS011;11382;48.086;11.632;2023-03-14T04:44:02;0.75;;;0.10;;
22429;SDS011;11382;48.086;11.632;2023-03-14T04:46:31;0.70;;;0.17;;
22429;SDS011;11382;48.086;11.632;2023-03-14T04:49:01;0.10;;;0.00;;
22429;SDS011;11382;48.086;11.632;2023-03-14T04:51:29;0.63;;;0.40;;
22429;SDS011;11382;48.086;11.632;2023-03-14T04:53:57;0.05;;;0.05;;
22429;SDS011;11382;48.086;11.632;2023-03-14T04:56:27;0.10;;;0.10;;
22429;SDS011;11382;48.086;11.632;2023-03-14T04:58:56;0.10;;;0.10;;
22429;SDS011;11382;48.086;11.632;2023-03-14T05:01:24;0.10;;;0.00;;
22429;SDS011;11382;48.086;11.632;2023-03-14T05:04:19;0.22;;;0.10;;
22429;SDS011;11382;48.086;11.632;2023-03-14T05:07:00;0.10;;;0.10;;
22429;SDS011;11382;48.086;11.632;2023-03-14T05:09:51;0.10;;;0.10;;
22429;SDS011;11382;48.086;11.632;2023-03-14T05:12:27;0.10;;;0.08;;
22429;SDS011;11382;48.086;11.632;2023-03-14T05:15:07;0.45;;;0.10;;
22429;SDS011;11382;48.086;11.632;2023-03-14T05:17:54;0.43;;;0.10;;
22429;SDS011;11382;48.086;11.632;2023-03-14T05:20:39;0.10;;;0.10;;
22429;SDS011;11382;48.086;11.632;2023-03-14T05:23:42;0.15;;;0.05;;
22429;SDS011;11382;48.086;11.632;2023-03-14T05:26:29;0.10;;;0.10;;
22429;SDS011;11382;48.086;11.632;2023-03-14T05:29:17;0.10;;;0.10;;
22429;SDS011;11382;48.086;11.632;2023-03-14T05:34:50;0.40;;;0.20;;
22429;SDS011;11382;48.086;11.632;2023-03-14T05:37:28;0.13;;;0.10;;
22429;SDS011;11382;48.086;11.632;2023-03-14T05:40:14;2.00;;;0.10;;
22429;SDS011;11382;48.086;11.632;2023-03-14T05:42:55;0.63;;;0.13;;
22429;SDS011;11382;48.086;11.632;2023-03-14T05:45:43;0.00;;;0.00;;
22429;SDS011;11382;48.086;11.632;2023-03-14T05:48:34;0.35;;;0.08;;
22429;SDS011;11382;48.086;11.632;2023-03-14T05:51:25;0.63;;;0.10;;
22429;SDS011;11382;48.086;11.632;2023-03-14T05:54:11;0.10;;;0.10;;
22429;SDS011;11382;48.086;11.632;2023-03-14T05:57:01;1.75;;;0.20;;
22429;SDS011;11382;48.086;11.632;2023-03-14T06:00:04;0.30;;;0.20;;
22429;SDS011;11382;48.086;11.632;2023-03-14T06:02:49;0.38;;;0.38;;
22429;SDS011;11382;48.086;11.632;2023-03-14T06:05:22;0.28;;;0.10;;
22429;SDS011;11382;48.086;11.632;2023-03-14T06:07:56;1.05;;;0.20;;
22429;SDS011;11382;48.086;11.632;2023-03-14T06:10:26;0.22;;;0.15;;
22429;SDS011;11382;48.086;11.632;2023-03-14T06:12:54;0.85;;;0.20;;
22429;SDS011;11382;48.086;11.632;2023-03-14T06:15:22;0.30;;;0.20;;
22429;SDS011;11382;48.086;11.632;2023-03-14T06:17:54;2.35;;;0.20;;
22429;SDS011;11382;48.086;11.632;2023-03-14T06:20:24;0.20;;;0.20;;
22429;SDS011;11382;48.086;11.632;2023-03-14T06:22:53;0.40;;;0.17;;
22429;SDS011;11382;48.086;11.632;2023-03-14T06:25:21;0.47;;;0.10;;
22429;SDS011;11382;48.086;11.632;2023-03-14T06:27:49;0.10;;;0.10;;
22429;SDS011;11382;48.086;11.632;2023-03-14T06:30:18;1.42;;;0.20;;
22429;SDS011;11382;48.086;11.632;2023-03-14T06:32:46;0.10;;;0.10;;
22429;SDS011;11382;48.086;11.632;2023-03-14T06:35:17;0.73;;;0.38;;
22429;SDS011;11382;48.086;11.632;2023-03-14T06:37:46;0.57;;;0.20;;
22429;SDS011;11382;48.086;11.632;2023-03-14T06:40:14;0.10;;;0.10;;
22429;SDS011;11382;48.086;11.632;2023-03-14T06:45:28;0.47;;;0.20;;
22429;SDS011;11382;48.086;11.632;2023-03-14T06:47:58;0.32;;;0.13;;
22429;SDS011;11382;48.086;11.632;2023-03-14T06:50:36;0.80;;;0.47;;
22429;SDS011;11382;48.086;11.632;2023-03-14T06:53:04;0.30;;;0.28;;
22429;SDS011;11382;48.086;11.632;2023-03-14T06:55:35;0.20;;;0.20;;
22429;SDS011;11382;48.086;11.632;2023-03-14T06:58:04;0.20;;;0.10;;
22429;SDS011;11382;48.086;11.632;2023-03-14T07:00:39;0.65;;;0.30;;
22429;SDS011;11382;48.086;11.632;2023-03-14T07:03:08;0.38;;;0.22;;
22429;SDS011;11382;48.086;11.632;2023-03-14T07:05:42;0.60;;;0.40;;
22429;SDS011;11382;48.086;11.632;2023-03-14T07:08:10;0.30;;;0.30;;
22429;SDS011;11382;48.086;11.632;2023-03-14T07:10:38;0.30;;;0.22;;
22429;SDS011;11382;48.086;11.632;2023-03-14T07:13:06;1.27;;;0.10;;
22429;SDS011;11382;48.086;11.632;2023-03-14T07:15:44;0.63;;;0.30;;
22429;SDS011;11382;48.086;11.632;2023-03-14T07:18:13;0.57;;;0.40;;
22429;SDS011;11382;48.086;11.632;2023-03-14T07:20:41;0.28;;;0.28;;
22429;SDS011;11382;48.086;11.632;2023-03-14T07:23:13;0.52;;;0.30;;
22429;SDS011;11382;48.086;11.632;2023-03-14T07:25:50;7.45;;;1.02;;
22429;SDS011;11382;48.086;11.632;2023-03-14T07:28:22;4.10;;;0.47;;
22429;SDS011;11382;48.086;11.632;2023-03-14T07:30:56;3.05;;;0.50;;
22429;SDS011;11382;48.086;11.632;2023-03-14T07:33:30;0.47;;;0.30;;
22429;SDS011;11382;48.086;11.632;2023-03-14T07:35:59;0.30;;;0.30;;
22429;SDS011;11382;48.086;11.632;2023-03-14T07:38:28;0.65;;;0.20;;
22429;SDS011;11382;48.086;11.632;2023-03-14T07:41:11;0.93;;;0.38;;
22429;SDS011;11382;48.086;11.632;2023-03-14T07:43:47;0.25;;;0.20;;
22429;SDS011;11382;48.086;11.632;2023-03-14T07:46:15;0.20;;;0.20;;
22429;SDS011;11382;48.086;11.632;2023-03-14T07:48:43;0.75;;;0.40;;
22429;SDS011;11382;48.086;11.632;2023-03-14T07:51:13;0.57;;;0.30;;
22429;SDS011;11382;48.086;11.632;2023-03-14T07:53:41;0.10;;;0.10;;
22429;SDS011;11382;48.086;11.632;2023-03-14T07:56:10;0.55;;;0.20;;
22429;SDS011;11382;48.086;11.632;2023-03-14T07:58:38;0.32;;;0.30;;
22429;SDS011;11382;48.086;11.632;2023-03-14T08:01:06;0.57;;;0.28;;
22429;SDS011;11382;48.086;11.632;2023-03-14T08:03:34;0.85;;;0.20;;
22429;SDS011;11382;48.086;11.632;2023-03-14T08:06:02;1.38;;;0.35;;
22429;SDS011;11382;48.086;11.632;2023-03-14T08:08:31;0.32;;;0.30;;
22429;SDS011;11382;48.086;11.632;2023-03-14T08:11:02;0.30;;;0.13;;
22429;SDS011;11382;48.086;11.632;2023-03-14T08:13:30;0.65;;;0.28;;
22429;SDS011;11382;48.086;11.632;2023-03-14T08:15:58;0.98;;;0.22;;
22429;SDS011;11382;48.086;11.632;2023-03-14T08:18:26;0.20;;;0.20;;
22429;SDS011;11382;48.086;11.632;2023-03-14T08:20:54;0.30;;;0.25;;
22429;SDS011;11382;48.086;11.632;2023-03-14T08:23:22;0.47;;;0.32;;
22429;SDS011;11382;48.086;11.632;2023-03-14T08:25:52;1.33;;;0.20;;
22429;SDS011;11382;48.086;11.632;2023-03-14T08:28:19;0.30;;;0.30;;
22429;SDS011;11382;48.086;11.632;2023-03-14T08:30:47;0.40;;;0.20;;
22429;SDS011;11382;48.086;11.632;2023-03-14T08:33:15;0.35;;;0.35;;
22429;SDS011;11382;48.086;11.632;2023-03-14T08:35:43;0.45;;;0.20;;
22429;SDS011;11382;48.086;11.632;2023-03-14T08:38:11;0.50;;;0.20;;
22429;SDS011;11382;48.086;11.632;2023-03-14T08:40:39;0.20;;;0.10;;
22429;SDS011;11382;48.086;11.632;2023-03-14T08:43:08;1.48;;;0.30;;
22429;SDS011;11382;48.086;11.632;2023-03-14T08:45:36;0.35;;;0.28;;
22429;SDS011;11382;48.086;11.632;2023-03-14T08:48:04;0.90;;;0.30;;
22429;SDS011;11382;48.086;11.632;2023-03-14T08:50:32;0.20;;;0.20;;
22429;SDS011;11382;48.086;11.632;2023-03-14T08:53:01;0.20;;;0.20;;
22429;SDS011;11382;48.086;11.632;2023-03-14T08:55:29;0.70;;;0.40;;
22429;SDS011;11382;48.086;11.632;2023-03-14T08:57:57;0.73;;;0.28;;
22429;SDS011;11382;48.086;11.632;2023-03-14T09:00:26;0.55;;;0.30;;
22429;SDS011;11382;48.086;11.632;2023-03-14T09:02:54;1.05;;;0.40;;
22429;SDS011;11382;48.086;11.632;2023-03-14T09:05:22;0.43;;;0.20;;
22429;SDS011;11382;48.086;11.632;2023-03-14T09:07:50;0.20;;;0.20;;
22429;SDS011;11382;48.086;11.632;2023-03-14T09:10:18;0.47;;;0.30;;
22429;SDS011;11382;48.086;11.632;2023-03-14T09:12:46;2.17;;;0.60;;
22429;SDS011;11382;48.086;11.632;2023-03-14T09:15:14;5.43;;;2.78;;
22429;SDS011;11382;48.086;11.632;2023-03-14T09:17:43;5.63;;;2.00;;
22429;SDS011;11382;48.086;11.632;2023-03-14T09:20:11;2.00;;;1.10;;
22429;SDS011;11382;48.086;11.632;2023-03-14T09:22:40;1.20;;;0.75;;
22429;SDS011;11382;48.086;11.632;2023-03-14T09:25:09;0.57;;;0.50;;
22429;SDS011;11382;48.086;11.632;2023-03-14T09:27:37;0.40;;;0.40;;
22429;SDS011;11382;48.086;11.632;2023-03-14T09:30:06;1.48;;;0.40;;
22429;SDS011;11382;48.086;11.632;2023-03-14T09:32:34;0.93;;;0.45;;
22429;SDS011;11382;48.086;11.632;2023-03-14T09:35:04;0.85;;;0.50;;
22429;SDS011;11382;48.086;11.632;2023-03-14T09:37:33;1.65;;;0.30;;
22429;SDS011;11382;48.086;11.632;2023-03-14T09:40:01;0.65;;;0.40;;
22429;SDS011;11382;48.086;11.632;2023-03-14T09:42:35;1.10;;;0.50;;
22429;SDS011;11382;48.086;11.632;2023-03-14T09:45:06;2.17;;;0.45;;
22429;SDS011;11382;48.086;11.632;2023-03-14T09:47:38;0.98;;;0.47;;
22429;SDS011;11382;48.086;11.632;2023-03-14T09:50:26;0.70;;;0.40;;
22429;SDS011;11382;48.086;11.632;2023-03-14T09:53:01;0.52;;;0.45;;
22429;SDS011;11382;48.086;11.632;2023-03-14T09:55:31;2.42;;;0.57;;
22429;SDS011;11382;48.086;11.632;2023-03-14T09:58:02;1.63;;;0.57;;
22429;SDS011;11382;48.086;11.632;2023-03-14T10:00:37;1.85;;;0.52;;
22429;SDS011;11382;48.086;11.632;2023-03-14T10:06:00;0.50;;;0.43;;
22429;SDS011;11382;48.086;11.632;2023-03-14T10:08:30;0.40;;;0.30;;
22429;SDS011;11382;48.086;11.632;2023-03-14T10:10:58;1.05;;;0.43;;
22429;SDS011;11382;48.086;11.632;2023-03-14T10:13:26;0.28;;;0.28;;
22429;SDS011;11382;48.086;11.632;2023-03-14T10:15:58;0.40;;;0.40;;
22429;SDS011;11382;48.086;11.632;2023-03-14T10:18:28;0.63;;;0.50;;
22429;SDS011;11382;48.086;11.632;2023-03-14T10:21:11;0.50;;;0.40;;
22429;SDS011;11382;48.086;11.632;2023-03-14T10:23:45;0.47;;;0.38;;
22429;SDS011;11382;48.086;11.632;2023-03-14T10:26:15;0.70;;;0.40;;
22429;SDS011;11382;48.086;11.632;2023-03-14T10:28:45;0.50;;;0.38;;
22429;SDS011;11382;48.086;11.632;2023-03-14T10:31:15;0.65;;;0.30;;
22429;SDS011;11382;48.086;11.632;2023-03-14T10:33:43;0.60;;;0.40;;
22429;SDS011;11382;48.086;11.632;2023-03-14T10:36:27;1.10;;;0.40;;
22429;SDS011;11382;48.086;11.632;2023-03-14T10:38:57;0.40;;;0.32;;
22429;SDS011;11382;48.086;11.632;2023-03-14T10:41:32;1.27;;;0.60;;
22429;SDS011;11382;48.086;11.632;2023-03-14T10:44:00;1.38;;;0.40;;
22429;SDS011;11382;48.086;11.632;2023-03-14T10:46:30;0.32;;;0.30;;
22429;SDS011;11382;48.086;11.632;2023-03-14T10:49:23;0.57;;;0.40;;
22429;SDS011;11382;48.086;11.632;2023-03-14T10:51:56;1.77;;;0.57;;
22429;SDS011;11382;48.086;11.632;2023-03-14T10:54:29;1.13;;;0.40;;
22429;SDS011;11382;48.086;11.632;2023-03-14T10:56:58;2.17;;;0.30;;
22429;SDS011;11382;48.086;11.632;2023-03-14T10:59:27;0.45;;;0.30;;
22429;SDS011;11382;48.086;11.632;2023-03-14T11:02:03;0.85;;;0.28;;
22429;SDS011;11382;48.086;11.632;2023-03-14T11:04:47;0.77;;;0.30;;
22429;SDS011;11382;48.086;11.632;2023-03-14T11:07:28;0.40;;;0.30;;
22429;SDS011;11382;48.086;11.632;2023-03-14T11:10:02;0.20;;;0.20;;
22429;SDS011;11382;48.086;11.632;2023-03-14T11:12:41;0.30;;;0.20;;
22429;SDS011;11382;48.086;11.632;2023-03-14T11:15:18;0.30;;;0.30;;
22429;SDS011;11382;48.086;11.632;2023-03-14T11:17:54;0.85;;;0.45;;
22429;SDS011;11382;48.086;11.632;2023-03-14T11:20:36;0.90;;;0.30;;
22429;SDS011;11382;48.086;11.632;2023-03-14T11:23:12;2.05;;;0.40;;
22429;SDS011;11382;48.086;11.632;2023-03-14T11:25:46;0.63;;;0.30;;
22429;SDS011;11382;48.086;11.632;2023-03-14T11:28:21;0.52;;;0.30;;
22429;SDS011;11382;48.086;11.632;2023-03-14T11:30:55;0.30;;;0.30;;
22429;SDS011;11382;48.086;11.632;2023-03-14T11:33:27;0.30;;;0.30;;
22429;SDS011;11382;48.086;11.632;2023-03-14T11:35:59;0.25;;;0.25;;
22429;SDS011;11382;48.086;11.632;2023-03-14T11:41:08;1.05;;;0.45;;
22429;SDS011;11382;48.086;11.632;2023-03-14T11:43:39;0.30;;;0.20;;
22429;SDS011;11382;48.086;11.632;2023-03-14T11:46:09;0.55;;;0.30;;
22429;SDS011;11382;48.086;11.632;2023-03-14T11:48:45;0.13;;;0.10;;
22429;SDS011;11382;48.086;11.632;2023-03-14T11:51:21;0.30;;;0.10;;
22429;SDS011;11382;48.086;11.632;2023-03-14T11:53:55;0.25;;;0.20;;
22429;SDS011;11382;48.086;11.632;2023-03-14T11:56:30;1.42;;;0.30;;
22429;SDS011;11382;48.086;11.632;2023-03-14T11:59:03;1.65;;;0.20;;
22429;SDS011;11382;48.086;11.632;2023-03-14T12:01:40;0.20;;;0.20;;
22429;SDS011;11382;48.086;11.632;2023-03-14T12:04:21;0.10;;;0.10;;
22429;SDS011;11382;48.086;11.632;2023-03-14T12:07:12;0.03;;;0.03;;
22429;SDS011;11382;48.086;11.632;2023-03-14T12:09:47;1.08;;;0.10;;
22429;SDS011;11382;48.086;11.632;2023-03-14T12:12:17;0.20;;;0.20;;
22429;SDS011;11382;48.086;11.632;2023-03-14T12:14:52;0.13;;;0.10;;
22429;SDS011;11382;48.086;11.632;2023-03-14T12:17:23;0.47;;;0.30;;
22429;SDS011;11382;48.086;11.632;2023-03-14T12:20:00;0.98;;;0.20;;
22429;SDS011;11382;48.086;11.632;2023-03-14T12:22:33;0.20;;;0.15;;
22429;SDS011;11382;48.086;11.632;2023-03-14T12:25:05;1.13;;;0.10;;
22429;SDS011;11382;48.086;11.632;2023-03-14T12:27:48;0.45;;;0.32;;
22429;SDS011;11382;48.086;11.632;2023-03-14T12:30:32;0.22;;;0.17;;
22429;SDS011;11382;48.086;11.632;2023-03-14T12:33:20;0.20;;;0.20;;
22429;SDS011;11382;48.086;11.632;2023-03-14T12:35:57;1.45;;;0.28;;
22429;SDS011;11382;48.086;11.632;2023-03-14T12:38:52;0.75;;;0.20;;
22429;SDS011;11382;48.086;11.632;2023-03-14T12:41:37;0.88;;;0.17;;
22429;SDS011;11382;48.086;11.632;2023-03-14T12:44:37;0.20;;;0.10;;
22429;SDS011;11382;48.086;11.632;2023-03-14T12:50:15;0.10;;;0.10;;
22429;SDS011;11382;48.086;11.632;2023-03-14T12:52:53;0.82;;;0.20;;
22429;SDS011;11382;48.086;11.632;2023-03-14T12:58:15;0.20;;;0.10;;
22429;SDS011;11382;48.086;11.632;2023-03-14T13:00:51;0.17;;;0.10;;
22429;SDS011;11382;48.086;11.632;2023-03-14T13:03:24;2.30;;;0.20;;
22429;SDS011;11382;48.086;11.632;2023-03-14T13:06:03;0.13;;;0.13;;
22429;SDS011;11382;48.086;11.632;2023-03-14T13:08:33;0.10;;;0.10;;
22429;SDS011;11382;48.086;11.632;2023-03-14T13:11:06;0.22;;;0.20;;
22429;SDS011;11382;48.086;11.632;2023-03-14T13:13:42;1.38;;;0.10;;
22429;SDS011;11382;48.086;11.632;2023-03-14T13:16:15;0.80;;;0.20;;
22429;SDS011;11382;48.086;11.632;2023-03-14T13:18:45;0.05;;;0.05;;
22429;SDS011;11382;48.086;11.632;2023-03-14T13:21:15;0.10;;;0.10;;
22429;SDS011;11382;48.086;11.632;2023-03-14T13:23:56;0.10;;;0.10;;
22429;SDS011;11382;48.086;11.632;2023-03-14T13:26:32;0.10;;;0.10;;
22429;SDS011;11382;48.086;11.632;2023-03-14T13:29:09;0.63;;;0.10;;
22429;SDS011;11382;48.086;11.632;2023-03-14T13:31:43;0.65;;;0.38;;
22429;SDS011;11382;48.086;11.632;2023-03-14T13:34:13;0.10;;;0.10;;
22429;SDS011;11382;48.086;11.632;2023-03-14T13:36:41;0.20;;;0.10;;
22429;SDS011;11382;48.086;11.632;2023-03-14T13:39:10;3.55;;;0.17;;
22429;SDS011;11382;48.086;11.632;2023-03-14T13:41:43;0.10;;;0.10;;
22429;SDS011;11382;48.086;11.632;2023-03-14T13:44:15;0.10;;;0.10;;
22429;SDS011;11382;48.086;11.632;2023-03-14T13:46:45;0.30;;;0.10;;
22429;SDS011;11382;48.086;11.632;2023-03-14T13:49:16;0.00;;;0.00;;
22429;SDS011;11382;48.086;11.632;2023-03-14T13:51:48;0.20;;;0.10;;
22429;SDS011;11382;48.086;11.632;2023-03-14T13:54:17;0.57;;;0.17;;
22429;SDS011;11382;48.086;11.632;2023-03-14T13:56:47;0.00;;;0.00;;
22429;SDS011;11382;48.086;11.632;2023-03-14T13:59:23;0.10;;;0.10;;
22429;SDS011;11382;48.086;11.632;2023-03-14T14:01:52;0.10;;;0.10;;
22429;SDS011;11382;48.086;11.632;2023-03-14T14:04:21;1.27;;;0.20;;
22429;SDS011;11382;48.086;11.632;2023-03-14T14:06:52;0.00;;;0.00;;
22429;SDS011;11382;48.086;11.632;2023-03-14T14:09:23;0.10;;;0.10;;
22429;SDS011;11382;48.086;11.632;2023-03-14T14:11:54;0.10;;;0.10;;
22429;SDS011;11382;48.086;11.632;2023-03-14T14:14:43;0.10;;;0.10;;
22429;SDS011;11382;48.086;11.632;2023-03-14T14:17:14;0.00;;;0.00;;
22429;SDS011;11382;48.086;11.632;2023-03-14T14:19:46;0.13;;;0.10;;
22429;SDS011;11382;48.086;11.632;2023-03-14T14:22:15;0.20;;;0.10;;
22429;SDS011;11382;48.086;11.632;2023-03-14T14:24:44;0.75;;;0.30;;
22429;SDS011;11382;48.086;11.632;2023-03-14T14:27:14;0.13;;;0.08;;
22429;SDS011;11382;48.086;11.632;2023-03-14T14:29:55;1.77;;;0.35;;
22429;SDS011;11382;48.086;11.632;2023-03-14T14:32:25;0.65;;;0.30;;
22429;SDS011;11382;48.086;11.632;2023-03-14T14:34:56;0.17;;;0.15;;
22429;SDS011;11382;48.086;11.632;2023-03-14T14:37:26;0.40;;;0.20;;
22429;SDS011;11382;48.086;11.632;2023-03-14T14:39:56;0.25;;;0.20;;
22429;SDS011;11382;48.086;11.632;2023-03-14T14:42:27;0.15;;;0.08;;
22429;SDS011;11382;48.086;11.632;2023-03-14T14:44:58;1.15;;;0.30;;
22429;SDS011;11382;48.086;11.632;2023-03-14T14:47:27;0.17;;;0.17;;
22429;SDS011;11382;48.086;11.632;2023-03-14T14:49:58;0.20;;;0.20;;
22429;SDS011;11382;48.086;11.632;2023-03-14T14:52:33;0.20;;;0.10;;
22429;SDS011;11382;48.086;11.632;2023-03-14T14:55:11;0.20;;;0.20;;
22429;SDS011;11382;48.086;11.632;2023-03-14T14:57:40;0.28;;;0.13;;
22429;SDS011;11382;48.086;11.632;2023-03-14T15:00:18;0.22;;;0.17;;
22429;SDS011;11382;48.086;11.632;2023-03-14T15:02:48;0.80;;;0.20;;
22429;SDS011;11382;48.086;11.632;2023-03-14T15:05:22;0.30;;;0.10;;
22429;SDS011;11382;48.086;11.632;2023-03-14T15:07:51;1.00;;;0.20;;
22429;SDS011;11382;48.086;11.632;2023-03-14T15:10:20;0.10;;;0.10;;
22429;SDS011;11382;48.086;11.632;2023-03-14T15:12:49;0.22;;;0.22;;
22429;SDS011;11382;48.086;11.632;2023-03-14T15:15:19;0.32;;;0.20;;
22429;SDS011;11382;48.086;11.632;2023-03-14T15:17:47;0.22;;;0.10;;
22429;SDS011;11382;48.086;11.632;2023-03-14T15:20:16;0.28;;;0.20;;
22429;SDS011;11382;48.086;11.632;2023-03-14T15:22:45;0.13;;;0.13;;
22429;SDS011;11382;48.086;11.632;2023-03-14T15:25:14;0.10;;;0.10;;